Terminal Aerodrome Forecast
Issued by NWS Jacksonville, FL

Home | Current Version | Previous Version | Text Only | Print | Product List | Glossary On
Versions: 1 2 3 4 5 6 7 8 9 10 11 12 13
000
FTUS42 KJAX 290538
TAFGNV
TAF
KGNV 290538Z 2906/3006 14006KT P6SM SCT015
      TEMPO 2909/2912 SCT008 BKN012
     FM291500 13012G20KT P6SM FEW035
     FM300000 12009KT P6SM FEW015=

USA.gov is the U.S. government's official web portal to all federal, state and local government web resources and services.